Time;durP1;ratioP1;P1;durP2;ratioP2;P2;SDS_P1;SDS_P2;PMS_P1;PMS_P2;Temp;Humidity;BMP_temperature;BMP_pressure;BME280_temperature;BME280_humidity;BME280_pressure;Samples;Min_cycle;Max_cycle;Signal;HPM_P1;HPM_P2
2023/01/24 00:00:07;;;;;;;15.75;12.63;;;3.60;99.90;;;;;;5075002;28;20084;-80
2023/01/24 00:02:33;;;;;;;16.15;12.82;;;3.60;99.90;;;;;;5091676;28;20040;-80
2023/01/24 00:04:58;;;;;;;19.23;13.23;;;3.60;99.90;;;;;;5092719;28;20044;-80
2023/01/24 00:07:24;;;;;;;16.57;13.27;;;3.60;99.90;;;;;;5091441;28;20040;-80
2023/01/24 00:09:50;;;;;;;17.03;12.87;;;3.60;99.90;;;;;;5092851;28;20492;-79
2023/01/24 00:12:15;;;;;;;17.70;13.20;;;3.60;99.90;;;;;;5092686;28;20476;-80
2023/01/24 00:14:41;;;;;;;16.87;13.10;;;3.60;99.90;;;;;;5091350;28;20040;-79
2023/01/24 00:17:07;;;;;;;17.70;12.63;;;3.60;99.90;;;;;;5091635;28;20131;-79
2023/01/24 00:19:33;;;;;;;15.98;12.73;;;3.60;99.90;;;;;;5058060;28;20085;-79
2023/01/24 00:22:00;;;;;;;17.42;12.88;;;3.60;99.90;;;;;;5091503;28;20134;-79
2023/01/24 00:24:27;;;;;;;17.88;13.65;;;3.60;99.90;;;;;;5090939;28;20048;-80
2023/01/24 00:26:52;;;;;;;19.02;13.70;;;3.60;99.90;;;;;;5093034;28;20044;-79
2023/01/24 00:29:18;;;;;;;17.00;13.17;;;3.60;99.90;;;;;;5091613;28;20173;-79
2023/01/24 00:31:44;;;;;;;18.43;12.60;;;3.60;99.90;;;;;;5092317;28;20040;-79
2023/01/24 00:34:10;;;;;;;18.10;13.73;;;3.60;99.90;;;;;;5091631;28;20048;-79
2023/01/24 00:36:35;;;;;;;16.97;13.50;;;3.60;99.90;;;;;;5092304;28;20048;-79
2023/01/24 00:39:01;;;;;;;16.97;13.57;;;3.60;99.90;;;;;;5094304;28;20491;-79
2023/01/24 00:41:27;;;;;;;19.43;14.93;;;3.60;99.90;;;;;;5096102;28;20046;-80
2023/01/24 00:43:52;;;;;;;19.33;13.90;;;3.60;99.90;;;;;;5078585;28;20048;-79
2023/01/24 00:46:18;;;;;;;17.87;13.33;;;3.50;99.90;;;;;;5095080;28;20048;-79
2023/01/24 00:48:44;;;;;;;17.27;13.80;;;3.50;99.90;;;;;;5078046;28;20503;-79
2023/01/24 00:51:09;;;;;;;18.80;13.97;;;3.50;99.90;;;;;;5077824;28;20047;-79
2023/01/24 00:53:35;;;;;;;19.97;14.77;;;3.60;99.90;;;;;;5095900;28;20120;-79
2023/01/24 00:56:01;;;;;;;18.63;14.60;;;3.50;99.90;;;;;;5096315;28;20043;-79
2023/01/24 00:58:26;;;;;;;20.30;15.03;;;3.50;99.90;;;;;;5094987;28;20388;-79
2023/01/24 01:00:56;;;;;;;22.50;14.80;;;3.50;99.90;;;;;;5095671;28;20126;-79
2023/01/24 01:03:22;;;;;;;19.55;14.50;;;3.50;99.90;;;;;;5095880;28;20044;-79
2023/01/24 01:05:48;;;;;;;18.80;14.40;;;3.60;99.90;;;;;;5094206;28;20567;-79
2023/01/24 01:08:14;;;;;;;19.00;14.77;;;3.50;99.90;;;;;;5094573;28;20040;-79
2023/01/24 01:10:40;;;;;;;19.07;14.63;;;3.60;99.90;;;;;;5094475;28;20092;-79
2023/01/24 01:13:08;;;;;;;19.88;15.27;;;3.60;99.90;;;;;;5095652;28;20085;-78
2023/01/24 01:15:34;;;;;;;18.73;14.98;;;3.50;99.90;;;;;;5094252;28;20058;-79
2023/01/24 01:18:00;;;;;;;18.80;14.53;;;3.60;99.90;;;;;;5095909;28;20514;-79
2023/01/24 01:20:26;;;;;;;20.37;15.17;;;3.60;99.90;;;;;;5095425;28;20052;-79
2023/01/24 01:22:52;;;;;;;20.02;14.55;;;3.60;99.90;;;;;;5095246;28;20400;-79
2023/01/24 01:25:18;;;;;;;19.63;15.20;;;3.60;99.90;;;;;;5077093;28;20052;-79
2023/01/24 01:27:43;;;;;;;21.20;15.47;;;3.60;99.90;;;;;;5095138;28;20059;-79
2023/01/24 01:30:10;;;;;;;18.20;14.57;;;3.60;99.90;;;;;;5095292;28;20117;-79
2023/01/24 01:32:35;;;;;;;18.60;13.88;;;3.50;99.90;;;;;;5093564;28;20043;-79
2023/01/24 01:35:01;;;;;;;18.23;14.33;;;3.60;99.90;;;;;;5095296;28;20047;-79
2023/01/24 01:37:27;;;;;;;20.27;15.07;;;3.60;99.90;;;;;;5094051;28;20105;-79
2023/01/24 01:39:52;;;;;;;18.80;14.07;;;3.60;99.90;;;;;;5093929;28;20586;-79
2023/01/24 01:42:18;;;;;;;19.47;15.10;;;3.60;99.90;;;;;;5094169;28;20051;-79
2023/01/24 01:44:48;;;;;;;19.97;14.97;;;3.60;99.90;;;;;;5093657;28;20044;-79
2023/01/24 01:47:33;;;;;;;22.02;16.23;;;3.60;99.90;;;;;;5095212;28;20120;-79
2023/01/24 01:50:01;;;;;;;21.92;14.90;;;3.60;99.90;;;;;;5094450;28;20496;-79
2023/01/24 01:52:32;;;;;;;20.58;15.52;;;3.60;99.90;;;;;;5094953;28;20066;-79
2023/01/24 01:55:05;;;;;;;18.88;14.63;;;3.60;99.90;;;;;;5094725;28;20075;-79
2023/01/24 01:57:33;;;;;;;20.10;14.63;;;3.60;99.90;;;;;;5094821;28;20035;-79
2023/01/24 02:00:04;;;;;;;19.48;14.70;;;3.70;99.90;;;;;;5094406;28;20084;-79
2023/01/24 02:02:31;;;;;;;19.73;14.88;;;3.60;99.90;;;;;;5094844;28;20101;-78
2023/01/24 02:04:59;;;;;;;16.95;13.38;;;3.60;99.90;;;;;;5093215;28;20052;-78
2023/01/24 02:07:34;;;;;;;18.30;14.18;;;3.60;99.90;;;;;;5094595;28;20044;-79
2023/01/24 02:10:00;;;;;;;20.05;14.40;;;3.60;99.90;;;;;;5094793;28;20052;-79
2023/01/24 02:12:29;;;;;;;21.65;15.00;;;3.60;99.90;;;;;;5094307;28;20503;-79
2023/01/24 02:17:44;;;;;;;17.45;13.52;;;3.60;99.90;;;;;;5094125;28;20056;-79
2023/01/24 02:20:28;;;;;;;18.52;13.75;;;3.70;99.90;;;;;;5094625;28;20102;-79
2023/01/24 02:23:03;;;;;;;18.42;14.02;;;3.70;99.90;;;;;;5094098;28;20509;-79
2023/01/24 02:25:46;;;;;;;15.20;12.82;;;3.70;99.90;;;;;;5092754;28;20060;-79
2023/01/24 02:28:12;;;;;;;16.48;13.35;;;3.70;99.90;;;;;;5093269;28;20403;-79
2023/01/24 02:30:38;;;;;;;18.98;14.07;;;3.70;99.90;;;;;;5093981;28;20495;-84
2023/01/24 02:33:16;;;;;;;17.13;13.57;;;3.60;99.90;;;;;;5094086;28;20054;-79
2023/01/24 02:35:43;;;;;;;21.40;14.23;;;3.70;99.90;;;;;;5093810;28;20040;-79
2023/01/24 02:38:23;;;;;;;17.08;13.05;;;3.60;99.90;;;;;;5094259;28;20083;-79
2023/01/24 02:40:53;;;;;;;20.00;14.85;;;3.70;99.90;;;;;;5093729;28;20040;-79
2023/01/24 02:43:22;;;;;;;19.13;14.30;;;3.60;99.90;;;;;;5076714;28;20044;-79
2023/01/24 02:45:48;;;;;;;20.00;13.95;;;3.70;99.90;;;;;;5093640;28;20055;-79
2023/01/24 02:48:14;;;;;;;16.53;13.50;;;3.70;99.90;;;;;;5092855;28;20127;-79
2023/01/24 02:53:30;;;;;;;18.77;13.60;;;3.70;99.90;;;;;;5092581;28;20087;-79
2023/01/24 02:58:50;;;;;;;16.88;12.80;;;3.70;99.90;;;;;;5093489;28;20052;-79
2023/01/24 03:01:16;;;;;;;18.07;13.67;;;3.70;99.90;;;;;;5092893;28;20044;-79
2023/01/24 03:03:43;;;;;;;18.15;13.70;;;3.70;99.90;;;;;;5059011;28;20301;-80
2023/01/24 03:06:14;;;;;;;18.98;14.60;;;3.70;99.90;;;;;;5075408;28;20059;-79
2023/01/24 03:08:40;;;;;;;17.52;13.05;;;3.70;99.90;;;;;;5075740;28;20058;-79
2023/01/24 03:11:07;;;;;;;18.75;13.82;;;3.70;99.90;;;;;;5092273;28;20137;-79
2023/01/24 03:35:31;;;;;;;16.63;12.80;;;3.70;99.90;;;;;;5093161;28;20048;-79
2023/01/24 03:40:41;;;;;;;19.05;13.68;;;3.70;99.90;;;;;;5093218;28;20052;-79
2023/01/24 03:43:07;;;;;;;17.17;12.30;;;3.60;99.90;;;;;;5075026;28;20043;-79
2023/01/24 03:45:35;;;;;;;15.80;12.10;;;3.70;99.90;;;;;;5091956;28;20080;-79
2023/01/24 03:48:12;;;;;;;17.38;13.10;;;3.70;99.90;;;;;;5091707;28;20052;-79
2023/01/24 03:53:26;;;;;;;16.88;13.27;;;3.70;99.90;;;;;;5093333;28;20423;-79
2023/01/24 03:55:54;;;;;;;17.70;12.65;;;3.70;99.90;;;;;;5092711;28;20118;-78
2023/01/24 03:58:21;;;;;;;16.98;13.43;;;3.70;99.90;;;;;;5092021;28;20145;-78
2023/01/24 04:00:46;;;;;;;17.45;13.25;;;3.60;99.90;;;;;;5091922;28;20346;-78
2023/01/24 04:03:12;;;;;;;15.60;11.73;;;3.60;99.90;;;;;;5091509;28;20050;-78
2023/01/24 04:05:38;;;;;;;17.33;13.53;;;3.60;99.90;;;;;;5092640;28;20499;-78
2023/01/24 04:08:04;;;;;;;18.07;13.50;;;3.60;99.90;;;;;;5092498;28;20480;-78
2023/01/24 04:10:30;;;;;;;16.23;12.80;;;3.60;99.90;;;;;;5091627;28;20055;-78
2023/01/24 04:12:56;;;;;;;15.75;11.98;;;3.60;99.90;;;;;;5075849;28;20047;-78
2023/01/24 04:15:28;;;;;;;15.57;11.63;;;3.60;99.90;;;;;;5096791;28;20381;-79
2023/01/24 04:17:56;;;;;;;14.77;12.13;;;3.60;99.90;;;;;;5096661;28;20051;-79
2023/01/24 04:20:22;;;;;;;13.60;11.23;;;3.60;99.90;;;;;;5097093;28;20040;-78
2023/01/24 04:22:48;;;;;;;13.90;11.15;;;3.60;99.90;;;;;;5095689;28;20055;-78
2023/01/24 04:25:14;;;;;;;13.47;11.27;;;3.60;99.90;;;;;;5096218;28;20067;-78
2023/01/24 04:27:40;;;;;;;14.97;12.33;;;3.60;99.90;;;;;;5095469;28;20127;-78
2023/01/24 04:30:08;;;;;;;16.47;12.43;;;3.60;99.90;;;;;;5096467;28;20055;-79
2023/01/24 04:32:34;;;;;;;15.23;11.68;;;3.70;99.90;;;;;;5095472;28;20499;-78
2023/01/24 04:35:00;;;;;;;16.03;12.57;;;3.70;99.90;;;;;;5096122;28;20044;-79
2023/01/24 04:37:26;;;;;;;15.55;12.05;;;3.70;99.90;;;;;;5078643;28;20131;-78
2023/01/24 04:39:52;;;;;;;15.45;12.40;;;3.70;99.90;;;;;;5096120;28;20054;-82
2023/01/24 04:42:18;;;;;;;15.03;11.87;;;3.70;99.90;;;;;;5078784;28;20410;-78
2023/01/24 04:44:43;;;;;;;15.27;11.20;;;3.60;99.90;;;;;;5094924;28;20050;-79
2023/01/24 04:47:09;;;;;;;15.77;12.80;;;3.60;99.90;;;;;;5094463;28;20062;-78
2023/01/24 04:49:35;;;;;;;17.70;12.60;;;3.70;99.90;;;;;;5095370;28;20048;-79
2023/01/24 04:52:00;;;;;;;15.50;11.90;;;3.60;99.90;;;;;;5094866;28;20044;-79
2023/01/24 04:54:26;;;;;;;15.27;12.07;;;3.60;99.90;;;;;;5095077;28;20092;-79
2023/01/24 04:56:52;;;;;;;17.47;11.60;;;3.60;99.90;;;;;;5094968;28;20044;-79
2023/01/24 04:59:17;;;;;;;14.53;12.00;;;3.60;99.90;;;;;;5077674;28;20056;-79
2023/01/24 05:01:43;;;;;;;16.57;11.37;;;3.60;99.90;;;;;;5094688;28;20051;-78
2023/01/24 05:04:09;;;;;;;17.13;12.73;;;3.60;99.90;;;;;;5094282;28;20040;-78
2023/01/24 05:06:35;;;;;;;15.63;12.67;;;3.60;99.90;;;;;;5094844;28;20052;-79
2023/01/24 05:09:01;;;;;;;14.75;12.45;;;3.60;99.90;;;;;;5094344;28;20044;-79
2023/01/24 05:11:27;;;;;;;16.02;12.48;;;3.60;99.90;;;;;;5095874;28;20133;-79
2023/01/24 05:13:53;;;;;;;15.57;12.00;;;3.60;99.90;;;;;;5095875;28;20484;-78
2023/01/24 05:16:19;;;;;;;16.93;11.83;;;3.60;99.90;;;;;;5094162;28;20040;-79
2023/01/24 05:18:45;;;;;;;16.75;12.88;;;3.60;99.90;;;;;;5094473;28;20040;-78
2023/01/24 05:21:13;;;;;;;15.37;12.47;;;3.50;99.90;;;;;;5077228;28;20046;-79
2023/01/24 05:23:40;;;;;;;17.08;12.43;;;3.50;99.90;;;;;;5095473;28;20048;-79
2023/01/24 05:26:06;;;;;;;15.15;12.10;;;3.50;99.90;;;;;;5093638;28;20059;-79
2023/01/24 05:28:32;;;;;;;15.73;12.57;;;3.50;99.90;;;;;;5094252;28;20044;-79
2023/01/24 05:31:03;;;;;;;17.40;13.70;;;3.60;99.90;;;;;;5095211;28;20286;-80
2023/01/24 05:33:29;;;;;;;15.80;13.07;;;3.50;99.90;;;;;;5077961;28;20056;-78
2023/01/24 05:36:00;;;;;;;16.67;13.70;;;3.50;99.90;;;;;;5095390;28;20040;-79
2023/01/24 05:38:25;;;;;;;19.42;14.50;;;3.40;99.90;;;;;;5094587;28;20055;-79
2023/01/24 05:40:51;;;;;;;20.07;15.80;;;3.50;99.90;;;;;;5095176;28;20452;-78
2023/01/24 05:43:17;;;;;;;21.55;15.52;;;3.50;99.90;;;;;;5094806;28;20040;-78
2023/01/24 05:45:43;;;;;;;19.10;15.37;;;3.50;99.90;;;;;;5095028;28;20047;-79
2023/01/24 05:48:09;;;;;;;20.63;15.87;;;3.50;99.90;;;;;;5094471;28;20044;-79
2023/01/24 05:50:36;;;;;;;19.50;15.30;;;3.50;99.90;;;;;;5095025;28;20052;-78
2023/01/24 05:53:03;;;;;;;18.77;14.90;;;3.40;99.90;;;;;;5094711;28;20135;-79
2023/01/24 05:55:29;;;;;;;20.35;15.75;;;3.50;99.90;;;;;;5093753;28;20067;-79
2023/01/24 05:57:54;;;;;;;20.63;15.97;;;3.40;99.90;;;;;;5094965;28;20488;-78
2023/01/24 06:00:20;;;;;;;19.73;15.37;;;3.40;99.90;;;;;;5093528;28;20660;-79
2023/01/24 06:02:47;;;;;;;18.65;15.32;;;3.40;99.90;;;;;;5093632;28;20044;-79
2023/01/24 06:05:12;;;;;;;19.73;15.50;;;3.40;99.90;;;;;;5093040;28;20040;-79
2023/01/24 06:07:38;;;;;;;22.93;16.27;;;3.40;99.90;;;;;;5094644;28;20047;-78
2023/01/24 06:10:04;;;;;;;19.83;16.27;;;3.40;99.90;;;;;;5094421;28;20047;-79
2023/01/24 06:12:30;;;;;;;20.57;16.57;;;3.40;99.90;;;;;;5093697;28;20044;-78
2023/01/24 06:14:55;;;;;;;21.57;16.93;;;3.50;99.90;;;;;;5094429;28;20043;-78
2023/01/24 06:17:21;;;;;;;20.67;16.80;;;3.40;99.90;;;;;;5059737;28;20048;-78
2023/01/24 06:19:47;;;;;;;21.27;16.77;;;3.50;99.90;;;;;;5076602;28;20087;-78
2023/01/24 06:22:31;;;;;;;23.07;17.43;;;3.40;99.90;;;;;;5076216;28;20094;-78
2023/01/24 06:24:57;;;;;;;21.92;17.35;;;3.40;99.90;;;;;;5094206;28;20052;-77
2023/01/24 06:27:23;;;;;;;25.77;16.98;;;3.40;99.90;;;;;;5094094;28;20052;-78
2023/01/24 06:29:49;;;;;;;23.07;17.47;;;3.40;99.90;;;;;;5094294;28;20051;-78
2023/01/24 06:32:21;;;;;;;24.80;16.53;;;3.40;99.90;;;;;;5093863;28;20278;-78
2023/01/24 06:35:25;;;;;;;24.27;17.48;;;3.40;99.90;;;;;;5093334;28;20507;-78
2023/01/24 06:37:52;;;;;;;21.88;17.17;;;3.40;99.90;;;;;;5093183;28;20131;-78
2023/01/24 06:40:22;;;;;;;21.48;16.85;;;3.40;99.90;;;;;;5092752;28;20047;-78
2023/01/24 06:42:49;;;;;;;24.00;18.02;;;3.30;99.90;;;;;;5092975;28;20480;-78
2023/01/24 06:45:16;;;;;;;22.42;17.25;;;3.30;99.90;;;;;;5058995;28;20392;-78
2023/01/24 06:47:42;;;;;;;23.48;17.27;;;3.30;99.90;;;;;;5075723;28;20130;-78
2023/01/24 06:50:20;;;;;;;20.73;16.15;;;3.30;99.90;;;;;;5093651;28;20062;-78
2023/01/24 06:52:47;;;;;;;22.58;16.85;;;3.30;99.90;;;;;;5092917;28;20044;-78
2023/01/24 06:55:13;;;;;;;24.73;18.23;;;3.30;99.90;;;;;;5092509;28;20063;-78
2023/01/24 06:57:39;;;;;;;21.15;17.10;;;3.20;99.90;;;;;;5092865;28;20118;-78
2023/01/24 07:00:08;;;;;;;22.27;17.55;;;3.30;99.90;;;;;;5092729;28;20048;-78
2023/01/24 07:02:34;;;;;;;23.98;17.50;;;3.30;99.90;;;;;;5093577;28;20055;-78
2023/01/24 07:04:59;;;;;;;22.83;17.63;;;3.30;99.90;;;;;;5093518;28;20036;-78
2023/01/24 07:07:25;;;;;;;25.40;18.47;;;3.30;99.90;;;;;;5093296;28;20048;-78
2023/01/24 07:09:51;;;;;;;25.13;18.63;;;3.30;99.90;;;;;;5093472;28;20040;-78
2023/01/24 07:12:16;;;;;;;22.83;17.90;;;3.30;99.90;;;;;;5075424;28;20052;-79
2023/01/24 07:14:43;;;;;;;23.77;18.07;;;3.30;99.90;;;;;;5093477;28;20511;-78
2023/01/24 07:17:09;;;;;;;22.92;18.73;;;3.30;99.90;;;;;;5093482;28;20052;-83
2023/01/24 07:19:35;;;;;;;23.40;17.60;;;3.30;99.90;;;;;;5093400;28;20046;-79
2023/01/24 07:22:01;;;;;;;23.35;18.02;;;3.30;99.90;;;;;;5093335;28;20040;-78
2023/01/24 07:24:29;;;;;;;24.63;18.13;;;3.30;99.90;;;;;;5093037;28;20478;-79
2023/01/24 07:26:55;;;;;;;23.33;18.20;;;3.30;99.90;;;;;;5092801;28;20496;-79
2023/01/24 07:29:22;;;;;;;23.20;18.13;;;3.30;99.90;;;;;;5092677;28;20400;-80
2023/01/24 07:31:49;;;;;;;25.65;18.35;;;3.30;99.90;;;;;;5093520;28;20048;-79
2023/01/24 07:34:16;;;;;;;21.58;16.50;;;3.30;99.90;;;;;;5092816;28;20044;-79
2023/01/24 07:36:43;;;;;;;22.33;17.33;;;3.30;99.90;;;;;;5093211;28;20059;-79
2023/01/24 07:39:09;;;;;;;23.00;16.55;;;3.30;99.90;;;;;;5093158;28;20059;-78
2023/01/24 07:41:35;;;;;;;22.90;16.67;;;3.30;99.90;;;;;;5092834;28;20048;-79
2023/01/24 07:44:04;;;;;;;21.83;15.98;;;3.30;99.90;;;;;;5093021;28;20044;-79
2023/01/24 07:46:32;;;;;;;21.70;16.75;;;3.30;99.90;;;;;;5092766;28;20131;-78
2023/01/24 07:48:57;;;;;;;21.38;16.38;;;3.20;99.90;;;;;;5092517;28;20127;-78
2023/01/24 07:51:23;;;;;;;21.07;16.53;;;3.20;99.90;;;;;;5091431;28;20162;-79
2023/01/24 07:53:49;;;;;;;20.30;15.67;;;3.30;99.90;;;;;;5092174;28;20134;-78
2023/01/24 07:56:16;;;;;;;21.27;15.83;;;3.30;99.90;;;;;;5091503;28;20173;-79
2023/01/24 07:58:42;;;;;;;24.05;16.65;;;3.30;99.90;;;;;;5092752;28;20551;-78
2023/01/24 08:01:08;;;;;;;22.92;16.85;;;3.20;99.90;;;;;;5091970;28;20095;-78
2023/01/24 08:03:33;;;;;;;24.03;17.23;;;3.30;99.90;;;;;;5092638;28;20138;-79
2023/01/24 08:05:59;;;;;;;23.47;16.60;;;3.30;99.90;;;;;;5074870;28;20044;-78
2023/01/24 08:08:25;;;;;;;22.67;17.93;;;3.30;99.90;;;;;;5092631;28;20048;-80
2023/01/24 08:10:51;;;;;;;22.00;17.00;;;3.30;99.90;;;;;;5091844;28;20388;-79
2023/01/24 08:13:16;;;;;;;23.63;17.60;;;3.30;99.90;;;;;;5092604;28;20048;-81
2023/01/24 08:15:42;;;;;;;25.90;18.97;;;3.30;99.90;;;;;;5092794;28;20134;-80
2023/01/24 08:18:08;;;;;;;22.33;17.07;;;3.30;99.90;;;;;;5058195;28;20067;-80
2023/01/24 08:20:33;;;;;;;21.77;16.70;;;3.30;99.90;;;;;;5074737;28;20048;-80
2023/01/24 08:22:59;;;;;;;22.60;15.87;;;3.30;99.90;;;;;;5091757;28;20075;-79
2023/01/24 08:25:26;;;;;;;22.90;16.43;;;3.30;99.90;;;;;;5092277;28;20060;-78
2023/01/24 08:27:53;;;;;;;21.40;15.68;;;3.20;99.90;;;;;;5091929;28;20056;-78
2023/01/24 08:30:19;;;;;;;19.10;14.65;;;3.20;99.90;;;;;;5092457;28;20056;-79
2023/01/24 08:32:44;;;;;;;20.88;16.00;;;3.20;99.90;;;;;;5074816;28;20044;-78
2023/01/24 08:35:10;;;;;;;18.97;14.03;;;3.30;99.90;;;;;;5091570;28;20040;-78
2023/01/24 08:37:36;;;;;;;20.23;15.20;;;3.20;99.90;;;;;;5092308;28;20507;-78
2023/01/24 08:40:03;;;;;;;17.60;13.60;;;3.20;99.90;;;;;;5091761;28;20060;-79
2023/01/24 08:42:29;;;;;;;18.85;13.75;;;3.20;99.90;;;;;;5092566;28;20153;-78
2023/01/24 08:44:54;;;;;;;17.20;13.80;;;3.20;99.90;;;;;;5092641;28;20492;-76
2023/01/24 08:47:20;;;;;;;18.60;12.80;;;3.20;99.90;;;;;;5092376;28;20048;-77
2023/01/24 08:49:46;;;;;;;17.37;13.03;;;3.20;99.90;;;;;;5092524;28;20044;-76
2023/01/24 08:52:11;;;;;;;18.97;13.83;;;3.20;99.90;;;;;;5092439;28;20108;-76
2023/01/24 08:54:38;;;;;;;18.07;13.13;;;3.20;99.90;;;;;;5091831;28;20040;-76
2023/01/24 08:57:07;;;;;;;20.60;14.63;;;3.20;99.90;;;;;;5092490;28;20056;-76
2023/01/24 08:59:33;;;;;;;19.67;13.77;;;3.20;99.90;;;;;;5092523;28;20044;-76
2023/01/24 09:01:59;;;;;;;19.23;13.60;;;3.30;99.90;;;;;;5096022;28;20058;-76
2023/01/24 09:04:26;;;;;;;17.83;13.83;;;3.30;99.90;;;;;;5095676;28;20051;-77
2023/01/24 09:06:52;;;;;;;19.33;13.15;;;3.30;99.90;;;;;;5095964;28;20123;-76
2023/01/24 09:09:18;;;;;;;18.10;13.33;;;3.30;99.90;;;;;;5095901;28;20548;-76
2023/01/24 09:11:43;;;;;;;16.83;11.83;;;3.30;99.90;;;;;;5095642;28;20125;-76
2023/01/24 09:14:09;;;;;;;16.60;12.67;;;3.30;99.90;;;;;;5095831;28;20044;-75
2023/01/24 09:16:35;;;;;;;18.30;12.43;;;3.30;99.90;;;;;;5095554;28;20044;-76
2023/01/24 09:19:00;;;;;;;16.13;12.43;;;3.30;99.90;;;;;;5095665;28;20046;-75
2023/01/24 09:21:26;;;;;;;17.50;12.90;;;3.30;99.90;;;;;;5094225;28;20056;-76
2023/01/24 09:23:55;;;;;;;14.83;11.47;;;3.30;99.90;;;;;;5095728;28;20483;-76
2023/01/24 09:26:22;;;;;;;17.70;12.48;;;3.30;99.90;;;;;;5094083;28;20064;-76
2023/01/24 09:28:47;;;;;;;18.20;13.27;;;3.30;99.90;;;;;;5095298;28;20044;-74
2023/01/24 09:31:13;;;;;;;17.57;12.40;;;3.30;99.90;;;;;;5094290;28;20047;-75
2023/01/24 09:33:39;;;;;;;15.73;11.87;;;3.30;99.90;;;;;;5094202;28;20048;-75
2023/01/24 09:36:05;;;;;;;17.10;12.27;;;3.30;99.90;;;;;;5095416;28;20105;-75
2023/01/24 09:38:32;;;;;;;16.58;12.55;;;3.30;99.90;;;;;;5094129;28;20059;-74
2023/01/24 09:41:06;;;;;;;16.83;12.18;;;3.30;99.90;;;;;;5094883;28;20496;-75
2023/01/24 09:43:43;;;;;;;17.85;12.90;;;3.30;99.90;;;;;;5093846;28;20044;-75
2023/01/24 09:46:36;;;;;;;17.58;12.13;;;3.30;99.90;;;;;;5095186;28;20044;-75
2023/01/24 09:49:32;;;;;;;16.52;11.52;;;3.30;99.90;;;;;;5075453;28;20055;-76
2023/01/24 09:51:59;;;;;;;16.00;12.32;;;3.30;99.90;;;;;;5092545;28;20126;-76
2023/01/24 09:55:06;;;;;;;16.95;12.23;;;3.40;99.90;;;;;;5094729;28;20089;-77
2023/01/24 09:57:49;;;;;;;17.25;11.88;;;3.30;99.90;;;;;;5074500;28;20098;-75
2023/01/24 10:00:24;;;;;;;16.52;12.15;;;3.30;99.90;;;;;;5094541;28;20044;-80
2023/01/24 10:02:49;;;;;;;17.25;12.43;;;3.30;99.90;;;;;;5093319;28;20149;-82
2023/01/24 10:05:16;;;;;;;16.50;12.10;;;3.30;99.90;;;;;;5094285;28;20036;-82
2023/01/24 10:07:45;;;;;;;18.05;12.88;;;3.30;99.90;;;;;;5094157;28;20076;-81
2023/01/24 10:10:37;;;;;;;16.45;12.30;;;3.30;99.90;;;;;;5094088;28;20837;-81
2023/01/24 10:13:36;;;;;;;16.83;12.60;;;3.30;99.90;;;;;;5092596;28;20051;-82
2023/01/24 10:16:17;;;;;;;17.85;12.13;;;3.30;99.90;;;;;;5092427;28;20044;-83
2023/01/24 10:18:49;;;;;;;16.58;11.82;;;3.30;99.90;;;;;;5092218;28;20395;-83
2023/01/24 10:21:31;;;;;;;17.08;11.30;;;3.30;99.90;;;;;;5092868;28;20040;-83
2023/01/24 10:24:01;;;;;;;14.93;11.95;;;3.30;99.90;;;;;;5091913;28;20045;-81
2023/01/24 10:26:51;;;;;;;17.05;12.35;;;3.30;99.90;;;;;;5094168;28;20112;-82
2023/01/24 10:29:29;;;;;;;16.83;12.18;;;3.30;99.90;;;;;;5091161;28;20048;-83
2023/01/24 10:32:05;;;;;;;17.13;11.85;;;3.30;99.90;;;;;;5093816;28;20044;-79
2023/01/24 10:34:43;;;;;;;16.45;11.65;;;3.40;99.90;;;;;;5091372;28;20032;-72
2023/01/24 10:37:24;;;;;;;15.43;11.77;;;3.40;99.90;;;;;;5091442;28;20135;-76
2023/01/24 10:39:50;;;;;;;16.60;12.00;;;3.40;99.90;;;;;;5092608;28;20484;-73
2023/01/24 10:42:25;;;;;;;15.87;11.67;;;3.30;99.90;;;;;;5094069;28;20047;-78
2023/01/24 10:44:51;;;;;;;;;;;3.40;99.90;;;;;;5094463;28;20047;-77
2023/01/24 10:47:35;;;;;;;14.97;11.07;;;3.30;99.90;;;;;;5094136;28;20372;-77
2023/01/24 10:50:05;;;;;;;16.30;12.32;;;3.40;99.90;;;;;;5094197;28;20083;-77
2023/01/24 10:52:31;;;;;;;16.98;12.68;;;3.40;99.90;;;;;;5092608;28;20047;-76
2023/01/24 10:55:01;;;;;;;17.42;12.13;;;3.40;99.90;;;;;;5093726;28;20074;-77
2023/01/24 10:57:43;;;;;;;16.85;11.75;;;3.30;99.90;;;;;;5092884;28;20384;-76
2023/01/24 11:00:14;;;;;;;17.27;12.30;;;3.30;99.90;;;;;;5093795;28;20051;-77
2023/01/24 11:02:41;;;;;;;15.77;11.55;;;3.30;99.90;;;;;;5093395;28;20048;-77
2023/01/24 11:05:12;;;;;;;16.33;12.13;;;3.40;99.90;;;;;;5093809;28;20048;-77
2023/01/24 11:08:00;;;;;;;15.95;11.93;;;3.30;99.90;;;;;;5092359;28;20136;-77
2023/01/24 11:10:35;;;;;;;16.23;11.55;;;3.40;99.90;;;;;;5093622;28;20043;-77
2023/01/24 11:13:22;;;;;;;15.70;11.48;;;3.40;99.90;;;;;;5093873;28;20051;-77
2023/01/24 11:15:51;;;;;;;17.42;12.98;;;3.40;99.90;;;;;;5092071;28;20492;-77
2023/01/24 11:18:20;;;;;;;16.95;12.68;;;3.40;99.90;;;;;;5093860;28;20097;-77
2023/01/24 11:20:55;;;;;;;16.25;12.55;;;3.50;99.90;;;;;;5093169;28;20054;-77
2023/01/24 11:23:21;;;;;;;17.08;13.25;;;3.40;99.90;;;;;;5092942;28;20051;-76
2023/01/24 11:25:56;;;;;;;19.15;12.93;;;3.40;99.90;;;;;;5092807;28;20143;-77
2023/01/24 11:28:26;;;;;;;16.05;12.48;;;3.40;99.90;;;;;;5093577;28;20414;-77
2023/01/24 11:30:54;;;;;;;16.20;12.82;;;3.40;99.90;;;;;;5093072;28;20484;-77
2023/01/24 11:33:41;;;;;;;18.15;13.25;;;3.40;99.90;;;;;;5092504;28;20083;-77
2023/01/24 11:36:31;;;;;;;17.42;12.60;;;3.40;99.90;;;;;;5092067;28;20044;-77
2023/01/24 11:39:04;;;;;;;16.45;12.32;;;3.40;99.90;;;;;;5092995;28;20036;-77
2023/01/24 11:41:49;;;;;;;20.33;13.18;;;3.40;99.90;;;;;;5092008;28;20043;-77
2023/01/24 11:44:38;;;;;;;17.45;12.52;;;3.40;99.90;;;;;;5093043;28;20429;-77
2023/01/24 11:47:17;;;;;;;18.30;12.52;;;3.50;99.90;;;;;;5093202;28;20048;-76
2023/01/24 11:49:43;;;;;;;16.98;12.52;;;3.40;99.90;;;;;;5092844;28;20062;-77
2023/01/24 11:52:26;;;;;;;16.40;12.37;;;3.30;99.90;;;;;;5091997;28;20056;-76
2023/01/24 11:55:10;;;;;;;17.20;12.48;;;3.40;99.90;;;;;;5092868;28;20059;-76
2023/01/24 11:57:48;;;;;;;18.75;12.75;;;3.40;99.90;;;;;;5092995;28;20046;-77
2023/01/24 12:00:36;;;;;;;16.73;12.73;;;3.50;99.90;;;;;;5092979;28;20412;-77
2023/01/24 12:03:10;;;;;;;17.20;11.88;;;3.40;99.90;;;;;;5092259;28;20481;-77
2023/01/24 12:05:51;;;;;;;17.35;12.68;;;3.40;99.90;;;;;;5092682;28;20044;-76
2023/01/24 12:08:38;;;;;;;16.15;12.40;;;3.40;99.90;;;;;;5093023;28;20090;-76
2023/01/24 12:11:10;;;;;;;16.88;12.90;;;3.50;99.90;;;;;;5092667;28;20097;-75
2023/01/24 12:14:03;;;;;;;16.80;12.43;;;3.50;99.90;;;;;;5092822;28;20040;-83
2023/01/24 12:16:52;;;;;;;18.25;12.68;;;3.50;99.90;;;;;;5092453;28;20495;-83
2023/01/24 12:19:35;;;;;;;16.63;12.25;;;3.50;99.90;;;;;;5092886;28;20579;-80
2023/01/24 12:22:01;;;;;;;16.80;12.75;;;3.60;99.90;;;;;;5092544;28;20135;-79
2023/01/24 12:24:33;;;;;;;18.35;12.80;;;3.60;99.90;;;;;;5091758;28;20125;-79
2023/01/24 12:27:14;;;;;;;16.48;12.60;;;3.60;99.90;;;;;;5092030;28;20062;-78
2023/01/24 12:29:48;;;;;;;16.42;12.43;;;3.60;99.90;;;;;;5092762;28;20548;-78
2023/01/24 12:32:33;;;;;;;16.15;12.98;;;3.60;99.90;;;;;;5093072;28;20044;-78
2023/01/24 12:35:17;;;;;;;17.80;13.23;;;3.60;99.90;;;;;;5095177;28;20428;-77
2023/01/24 12:37:57;;;;;;;16.85;12.55;;;3.50;99.90;;;;;;5096613;28;20048;-78
2023/01/24 12:40:54;;;;;;;16.60;12.15;;;3.60;99.90;;;;;;5096454;28;20105;-78
2023/01/24 12:43:48;;;;;;;17.58;12.55;;;3.50;99.90;;;;;;5095715;28;20048;-78
2023/01/24 12:46:22;;;;;;;16.33;12.50;;;3.50;99.90;;;;;;5096551;28;20075;-78
2023/01/24 12:49:01;;;;;;;16.25;11.32;;;3.50;99.90;;;;;;5096297;28;20044;-78
2023/01/24 12:51:39;;;;;;;17.42;13.45;;;3.50;99.90;;;;;;5096776;28;20054;-79
2023/01/24 12:54:14;;;;;;;18.90;12.73;;;3.50;99.90;;;;;;5096059;28;20415;-82
2023/01/24 12:57:13;;;;;;;16.20;12.23;;;3.50;99.90;;;;;;5094883;28;20060;-79
2023/01/24 12:59:38;;;;;;;17.20;13.60;;;3.50;99.90;;;;;;5095671;28;20078;-79
2023/01/24 13:02:43;;;;;;;15.67;12.50;;;3.50;99.90;;;;;;5095446;28;20043;-82
2023/01/24 13:05:36;;;;;;;20.38;13.75;;;3.60;99.90;;;;;;5106224;28;20468;-77
2023/01/24 13:08:14;;;;;;;18.20;13.52;;;3.50;99.90;;;;;;5091077;28;20048;-82
2023/01/24 13:11:18;;;;;;;17.55;12.60;;;3.60;99.90;;;;;;5088925;28;20052;-79
2023/01/24 13:14:02;;;;;;;16.98;13.40;;;3.50;99.90;;;;;;5094946;28;20047;-79
2023/01/24 13:17:17;;;;;;;17.65;13.13;;;3.50;99.90;;;;;;5092230;28;20044;-78
2023/01/24 13:19:51;;;;;;;17.42;13.82;;;3.50;99.90;;;;;;5060430;28;20067;-77
2023/01/24 13:22:52;;;;;;;17.77;13.38;;;3.50;99.90;;;;;;5098422;28;20126;-79
2023/01/24 13:25:34;;;;;;;18.60;13.75;;;3.50;99.90;;;;;;5093325;28;20185;-76
2023/01/24 13:28:05;;;;;;;18.98;13.35;;;3.50;99.90;;;;;;5101221;28;20069;-80
2023/01/24 13:30:52;;;;;;;15.93;12.05;;;3.50;99.90;;;;;;5094310;28;20051;-82